createdAt,value
2023-02-15T00:01:51.030Z,4.01
2023-02-15T00:04:20.213Z,3.98
2023-02-15T00:06:52.987Z,4.03
2023-02-15T00:09:21.673Z,4.07
2023-02-15T00:11:51.981Z,4.02
2023-02-15T00:14:21.612Z,4.04
2023-02-15T00:16:49.763Z,4.05
2023-02-15T00:19:18.339Z,4.04
2023-02-15T00:21:45.914Z,4.00
2023-02-15T00:24:14.635Z,3.98
2023-02-15T00:26:44.712Z,3.93
2023-02-15T00:29:12.290Z,3.94
2023-02-15T00:31:39.432Z,3.91
2023-02-15T00:34:09.015Z,3.94
2023-02-15T00:36:36.117Z,3.87
2023-02-15T00:39:03.269Z,3.80
2023-02-15T00:41:30.288Z,3.77
2023-02-15T00:43:58.330Z,3.74
2023-02-15T00:46:25.455Z,3.66
2023-02-15T00:48:52.535Z,3.63
2023-02-15T00:51:19.581Z,3.59
2023-02-15T00:53:46.520Z,3.56
2023-02-15T00:56:14.490Z,3.50
2023-02-15T00:58:41.640Z,3.43
2023-02-15T01:01:12.815Z,3.37
2023-02-15T01:03:45.070Z,3.32
2023-02-15T01:06:12.274Z,3.24
2023-02-15T01:08:39.568Z,3.26
2023-02-15T01:11:23.456Z,3.20
2023-02-15T01:13:53.669Z,3.13
2023-02-15T01:16:21.063Z,3.13
2023-02-15T01:18:48.266Z,3.08
2023-02-15T01:21:21.442Z,3.03
2023-02-15T01:23:48.492Z,2.97
2023-02-15T01:26:15.954Z,2.96
2023-02-15T01:28:44.963Z,2.93
2023-02-15T01:31:16.588Z,2.91
2023-02-15T01:33:45.648Z,2.87
2023-02-15T01:36:12.713Z,2.82
2023-02-15T01:38:41.127Z,2.80
2023-02-15T01:41:28.319Z,2.78
2023-02-15T01:44:00.983Z,2.74
2023-02-15T01:46:47.178Z,2.65
2023-02-15T01:49:20.791Z,2.65
2023-02-15T01:51:48.859Z,2.57
2023-02-15T01:54:25.979Z,2.56
2023-02-15T01:56:54.031Z,2.51
2023-02-15T01:59:23.312Z,2.49
2023-02-15T02:01:52.604Z,2.44
2023-02-15T02:04:25.915Z,2.38
2023-02-15T02:06:55.720Z,2.34
2023-02-15T02:09:22.792Z,2.29
2023-02-15T02:11:50.399Z,2.22
2023-02-15T02:14:17.988Z,2.24
2023-02-15T02:17:15.387Z,2.24
2023-02-15T02:20:25.195Z,2.25
2023-02-15T02:23:07.592Z,2.24
2023-02-15T02:25:53.442Z,2.21
2023-02-15T02:28:23.515Z,2.19
2023-02-15T02:31:10.006Z,2.09
2023-02-15T02:33:58.749Z,1.99
2023-02-15T02:36:34.168Z,1.96
2023-02-15T02:39:39.179Z,1.94
2023-02-15T02:42:37.126Z,1.89
2023-02-15T02:45:11.119Z,1.91
2023-02-15T02:47:54.103Z,1.85
2023-02-15T02:50:27.542Z,1.76
2023-02-15T02:52:56.569Z,1.76
2023-02-15T02:55:32.795Z,1.59
2023-02-15T02:58:04.706Z,1.67
2023-02-15T03:00:37.237Z,1.64
2023-02-15T03:03:09.055Z,1.60
2023-02-15T03:05:41.476Z,1.64
2023-02-15T03:08:11.964Z,1.59
2023-02-15T03:10:41.753Z,1.55
2023-02-15T03:13:09.243Z,1.54
2023-02-15T03:15:58.077Z,1.49
2023-02-15T03:18:29.839Z,1.46
2023-02-15T03:20:57.484Z,1.43
2023-02-15T03:23:26.528Z,1.42
2023-02-15T03:25:58.827Z,1.36
2023-02-15T03:28:37.053Z,1.35
2023-02-15T03:31:07.062Z,1.37
2023-02-15T03:33:37.029Z,1.35
2023-02-15T03:36:11.068Z,1.39
2023-02-15T03:38:45.194Z,1.37
2023-02-15T03:41:13.947Z,1.32
2023-02-15T03:43:52.918Z,1.17
2023-02-15T03:46:29.208Z,1.20
2023-02-15T03:48:59.572Z,1.19
2023-02-15T03:51:36.064Z,1.16
2023-02-15T03:54:06.180Z,1.17
2023-02-15T03:56:35.421Z,1.20
2023-02-15T03:59:21.184Z,1.21
2023-02-15T04:02:11.016Z,1.20
2023-02-15T04:04:39.809Z,1.19
2023-02-15T04:07:08.783Z,1.18
2023-02-15T04:09:56.119Z,1.15
2023-02-15T04:12:23.196Z,1.12
2023-02-15T04:15:08.651Z,1.08
2023-02-15T04:17:37.483Z,1.03
2023-02-15T04:20:38.084Z,0.97
2023-02-15T04:23:29.621Z,0.76
2023-02-15T04:25:56.310Z,0.50
2023-02-15T04:28:23.158Z,0.83
2023-02-15T04:30:50.182Z,0.95
2023-02-15T04:33:17.070Z,0.99
2023-02-15T04:35:46.177Z,1.05
2023-02-15T04:38:12.954Z,1.03
2023-02-15T04:40:39.765Z,1.06
2023-02-15T04:43:06.536Z,0.97
2023-02-15T04:45:33.335Z,1.00
2023-02-15T04:48:04.389Z,0.95
2023-02-15T04:50:34.351Z,0.91
2023-02-15T04:53:01.065Z,0.98
2023-02-15T04:55:28.037Z,1.05
2023-02-15T04:57:54.965Z,0.98
2023-02-15T05:00:21.904Z,0.98
2023-02-15T05:02:48.868Z,0.95
2023-02-15T05:05:16.272Z,0.90
2023-02-15T05:07:43.222Z,0.87
2023-02-15T05:10:10.413Z,0.80
2023-02-15T05:12:37.253Z,0.78
2023-02-15T05:15:06.282Z,0.75
2023-02-15T05:17:33.232Z,0.72
2023-02-15T05:20:00.363Z,0.68
2023-02-15T05:22:27.139Z,0.68
2023-02-15T05:25:14.473Z,0.67
2023-02-15T05:28:04.414Z,0.68
2023-02-15T05:30:34.854Z,0.71
2023-02-15T05:33:05.557Z,0.69
2023-02-15T05:35:38.577Z,0.70
2023-02-15T05:38:05.416Z,0.64
2023-02-15T05:41:13.263Z,0.63
2023-02-15T05:44:01.501Z,0.57
2023-02-15T05:46:28.581Z,0.61
2023-02-15T05:49:07.454Z,0.61
2023-02-15T05:51:36.477Z,0.58
2023-02-15T05:54:03.232Z,0.59
2023-02-15T05:56:30.090Z,0.58
2023-02-15T05:59:00.112Z,0.57
2023-02-15T06:01:26.929Z,0.53
2023-02-15T06:03:54.112Z,0.51
2023-02-15T06:06:21.304Z,0.41
2023-02-15T06:08:48.037Z,0.41
2023-02-15T06:11:18.046Z,0.41
2023-02-15T06:13:44.939Z,0.35
2023-02-15T06:16:12.105Z,0.43
2023-02-15T06:18:38.947Z,0.40
2023-02-15T06:21:05.830Z,0.35
2023-02-15T06:23:32.739Z,0.39
2023-02-15T06:25:59.623Z,0.47
2023-02-15T06:28:35.119Z,0.47
2023-02-15T06:31:06.991Z,0.48
2023-02-15T06:33:40.317Z,0.50
2023-02-15T06:36:09.875Z,0.59
2023-02-15T06:38:39.798Z,0.54
2023-02-15T06:41:06.745Z,0.57
2023-02-15T06:43:36.640Z,0.59
2023-02-15T06:46:09.108Z,0.65
2023-02-15T06:48:36.371Z,0.61
2023-02-15T06:51:06.165Z,0.64
2023-02-15T06:53:33.081Z,0.61
2023-02-15T06:56:10.132Z,0.56
2023-02-15T06:58:41.078Z,0.57
2023-02-15T07:01:12.537Z,0.62
2023-02-15T07:03:43.857Z,0.57
2023-02-15T07:06:38.327Z,0.58
2023-02-15T07:09:07.916Z,0.56
2023-02-15T07:11:53.554Z,0.44
2023-02-15T07:14:20.299Z,0.49
2023-02-15T07:16:47.069Z,0.52
2023-02-15T07:19:14.079Z,0.56
2023-02-15T07:21:40.749Z,0.52
2023-02-15T07:24:07.511Z,0.57
2023-02-15T07:26:34.720Z,0.60
2023-02-15T07:29:01.813Z,0.60
2023-02-15T07:31:28.637Z,0.61
2023-02-15T07:33:55.310Z,0.69
2023-02-15T07:36:22.017Z,0.75
2023-02-15T07:38:48.827Z,0.71
2023-02-15T07:41:16.583Z,0.71
2023-02-15T07:43:45.479Z,0.77
2023-02-15T07:46:14.837Z,0.82
2023-02-15T07:48:42.091Z,0.85
2023-02-15T07:51:10.328Z,0.84
2023-02-15T07:53:38.173Z,0.89
2023-02-15T07:56:07.689Z,0.91
2023-02-15T07:58:53.880Z,0.88
2023-02-15T08:01:31.742Z,0.86
2023-02-15T08:04:01.885Z,0.90
2023-02-15T08:06:31.149Z,0.96
2023-02-15T08:08:57.996Z,0.95
2023-02-15T08:11:37.674Z,1.01
2023-02-15T08:14:21.700Z,1.02
2023-02-15T08:16:53.353Z,1.05
2023-02-15T08:19:26.024Z,1.07
2023-02-15T08:21:59.211Z,1.07
2023-02-15T08:24:33.355Z,1.05
2023-02-15T08:27:00.341Z,1.10
2023-02-15T08:29:31.796Z,1.08
2023-02-15T08:32:05.695Z,1.00
2023-02-15T08:34:34.767Z,0.99
2023-02-15T08:37:01.847Z,1.03
2023-02-15T08:39:28.558Z,1.04
2023-02-15T08:41:55.609Z,0.96
2023-02-15T08:44:22.372Z,0.94
2023-02-15T08:46:50.151Z,1.07
2023-02-15T08:49:22.233Z,1.15
2023-02-15T08:51:49.836Z,1.09
2023-02-15T08:54:21.914Z,1.14
2023-02-15T08:56:49.032Z,1.17
2023-02-15T08:59:20.935Z,1.33
2023-02-15T09:01:48.949Z,1.23
2023-02-15T09:04:16.905Z,1.15
2023-02-15T09:06:47.642Z,1.13
2023-02-15T09:09:15.778Z,1.07
2023-02-15T09:11:44.352Z,1.05
2023-02-15T09:14:14.629Z,1.16
2023-02-15T09:16:50.936Z,1.16
2023-02-15T09:19:19.140Z,1.22
2023-02-15T09:21:46.296Z,1.32
2023-02-15T09:24:17.496Z,1.30
2023-02-15T09:26:46.416Z,1.33
2023-02-15T09:29:14.381Z,1.39
2023-02-15T09:31:45.385Z,1.39
2023-02-15T09:34:22.183Z,1.44
2023-02-15T09:36:52.334Z,1.49
2023-02-15T09:39:29.121Z,1.62
2023-02-15T09:42:14.145Z,1.64
2023-02-15T09:45:04.528Z,1.73
2023-02-15T09:47:44.779Z,1.78
2023-02-15T09:50:32.499Z,1.84
2023-02-15T09:53:07.879Z,1.78
2023-02-15T09:55:54.567Z,1.97
2023-02-15T09:58:44.385Z,2.04
2023-02-15T10:01:26.002Z,2.17
2023-02-15T10:04:05.209Z,2.28
2023-02-15T10:07:05.988Z,2.39
2023-02-15T10:09:59.108Z,2.39
2023-02-15T10:13:03.381Z,2.39
2023-02-15T10:16:15.281Z,2.41
2023-02-15T10:18:42.983Z,2.59
2023-02-15T10:21:43.730Z,2.71
2023-02-15T10:24:27.145Z,2.62
2023-02-15T10:26:56.855Z,2.52
2023-02-15T10:29:41.447Z,2.61
2023-02-15T10:32:27.270Z,2.66
2023-02-15T10:35:06.158Z,2.59
2023-02-15T10:37:45.867Z,2.53
2023-02-15T10:40:50.596Z,2.63
2023-02-15T10:43:40.218Z,2.73
2023-02-15T10:46:13.200Z,2.70
2023-02-15T10:48:53.473Z,2.61
2023-02-15T10:51:40.437Z,2.70
2023-02-15T10:54:19.319Z,2.79
2023-02-15T10:56:49.354Z,2.89
2023-02-15T10:59:30.114Z,2.84
2023-02-15T11:02:21.045Z,2.92
2023-02-15T11:04:59.760Z,2.87
2023-02-15T11:07:34.952Z,2.96
2023-02-15T11:10:03.273Z,3.11
2023-02-15T11:12:30.755Z,3.07
2023-02-15T11:15:28.057Z,3.21
2023-02-15T11:18:00.233Z,3.22
2023-02-15T11:20:31.976Z,3.25
2023-02-15T11:22:59.331Z,3.25
2023-02-15T11:25:34.982Z,3.26
2023-02-15T11:28:04.981Z,3.37
2023-02-15T11:30:44.812Z,3.31
2023-02-15T11:33:24.121Z,3.38
2023-02-15T11:36:14.985Z,3.53
2023-02-15T11:38:44.584Z,3.68
2023-02-15T11:41:13.448Z,3.76
2023-02-15T11:43:55.999Z,3.71
2023-02-15T11:46:23.116Z,3.59
2023-02-15T11:48:50.206Z,3.95
2023-02-15T11:51:22.128Z,4.12
2023-02-15T11:53:50.880Z,3.89
2023-02-15T11:56:20.073Z,4.23
2023-02-15T11:58:53.474Z,4.37
2023-02-15T12:01:45.289Z,4.33
2023-02-15T12:04:44.475Z,4.45
2023-02-15T12:07:29.891Z,4.52
2023-02-15T12:10:14.949Z,4.55
2023-02-15T12:12:41.913Z,4.85
2023-02-15T12:15:10.350Z,5.03
2023-02-15T12:17:40.694Z,5.09
2023-02-15T12:20:23.171Z,5.26
2023-02-15T12:22:55.118Z,5.71
2023-02-15T12:25:30.983Z,6.19
2023-02-15T12:27:57.676Z,6.91
2023-02-15T12:30:31.982Z,7.42
2023-02-15T12:33:03.834Z,7.78
2023-02-15T12:35:33.145Z,7.92
2023-02-15T12:38:06.509Z,8.32
2023-02-15T12:40:35.080Z,8.56
2023-02-15T12:43:09.683Z,8.39
2023-02-15T12:45:38.430Z,8.03
2023-02-15T12:48:15.119Z,8.04
2023-02-15T12:50:43.319Z,7.92
2023-02-15T12:53:20.223Z,7.85
2023-02-15T12:55:55.251Z,8.06
2023-02-15T12:58:26.360Z,8.23
2023-02-15T13:01:09.666Z,8.39
2023-02-15T13:03:37.038Z,8.33
2023-02-15T13:06:08.438Z,8.82
2023-02-15T13:08:40.771Z,9.10
2023-02-15T13:11:12.356Z,8.97
2023-02-15T13:13:54.590Z,9.06
2023-02-15T13:16:31.240Z,8.91
2023-02-15T13:18:58.937Z,8.91
2023-02-15T13:21:33.949Z,8.92
2023-02-15T13:24:07.110Z,9.12
2023-02-15T13:26:35.986Z,9.28
2023-02-15T13:29:30.227Z,9.04
2023-02-15T13:32:09.129Z,8.76
2023-02-15T13:34:37.554Z,8.90
2023-02-15T13:37:17.669Z,9.17
2023-02-15T13:39:56.463Z,9.48
2023-02-15T13:42:32.061Z,9.61
2023-02-15T13:45:31.624Z,9.45
2023-02-15T13:48:22.267Z,9.60
2023-02-15T13:50:51.932Z,9.55
2023-02-15T13:53:40.256Z,9.66
2023-02-15T13:56:15.302Z,9.93
2023-02-15T13:59:05.172Z,9.66
2023-02-15T14:01:40.829Z,9.65
2023-02-15T14:04:23.428Z,9.64
2023-02-15T14:06:59.461Z,9.74
2023-02-15T14:09:44.744Z,9.57
2023-02-15T14:12:24.910Z,9.66
2023-02-15T14:15:23.647Z,9.58
2023-02-15T14:18:28.368Z,9.48
2023-02-15T14:21:02.231Z,9.71
2023-02-15T14:23:43.623Z,9.74
2023-02-15T14:26:16.313Z,10.06
2023-02-15T14:29:04.525Z,10.06
2023-02-15T14:31:42.247Z,10.08
2023-02-15T14:34:30.240Z,10.06
2023-02-15T14:36:59.722Z,10.32
2023-02-15T14:39:58.262Z,10.55
2023-02-15T14:42:32.128Z,10.73
2023-02-15T14:45:20.568Z,10.61
2023-02-15T14:47:59.198Z,10.84
2023-02-15T14:50:32.210Z,10.98
2023-02-15T14:53:17.778Z,10.87
2023-02-15T14:55:44.676Z,10.64
2023-02-15T14:58:13.390Z,10.41
2023-02-15T15:00:45.886Z,10.23
2023-02-15T15:03:22.935Z,10.00
2023-02-15T15:05:54.992Z,9.98
2023-02-15T15:08:39.077Z,9.68
2023-02-15T15:11:44.002Z,9.56
2023-02-15T15:14:32.543Z,9.55
2023-02-15T15:17:12.062Z,9.56
2023-02-15T15:19:52.040Z,9.62
2023-02-15T15:22:26.776Z,9.89
2023-02-15T15:24:57.614Z,9.90
2023-02-15T15:27:46.455Z,9.89
2023-02-15T15:30:36.508Z,9.84
2023-02-15T15:33:32.937Z,9.68
2023-02-15T15:36:26.964Z,9.20
2023-02-15T15:39:33.549Z,8.98
2023-02-15T15:42:35.535Z,8.79
2023-02-15T15:45:24.506Z,8.52
2023-02-15T15:48:07.330Z,8.46
2023-02-15T15:50:44.624Z,8.44
2023-02-15T15:53:20.857Z,8.39
2023-02-15T15:55:48.820Z,8.27
2023-02-15T15:58:18.181Z,8.19
2023-02-15T16:00:48.684Z,8.11
2023-02-15T16:03:17.393Z,8.01
2023-02-15T16:05:49.371Z,7.96
2023-02-15T16:08:29.349Z,7.83
2023-02-15T16:10:56.380Z,7.76
2023-02-15T16:13:26.758Z,7.56
2023-02-15T16:15:55.470Z,7.40
2023-02-15T16:18:26.174Z,7.23
2023-02-15T16:20:58.372Z,7.03
2023-02-15T16:23:37.414Z,6.98
2023-02-15T16:26:15.121Z,6.91
2023-02-15T16:28:50.111Z,6.80
2023-02-15T16:31:17.589Z,6.67
2023-02-15T16:33:48.382Z,6.63
2023-02-15T16:36:21.277Z,6.50
2023-02-15T16:39:08.109Z,6.41
2023-02-15T16:44:33.995Z,6.24
2023-02-15T16:47:13.248Z,6.05
2023-02-15T16:50:33.343Z,6.02
2023-02-15T16:53:02.623Z,5.99
2023-02-15T16:55:36.846Z,5.97
2023-02-15T16:58:08.692Z,5.96
2023-02-15T17:00:37.747Z,5.91
2023-02-15T17:03:11.635Z,5.73
2023-02-15T17:05:48.269Z,5.57
2023-02-15T17:08:36.469Z,5.48
2023-02-15T17:11:34.817Z,5.37
2023-02-15T17:14:15.869Z,5.33
2023-02-15T17:16:50.189Z,5.25
2023-02-15T17:19:55.648Z,5.14
2023-02-15T17:22:25.267Z,5.13
2023-02-15T17:24:59.984Z,5.15
2023-02-15T17:27:29.440Z,5.07
2023-02-15T17:30:01.154Z,4.90
2023-02-15T17:32:32.442Z,4.84
2023-02-15T17:35:09.558Z,4.82
2023-02-15T17:37:39.239Z,4.81
2023-02-15T17:40:19.625Z,4.76
2023-02-15T17:42:46.449Z,4.71
2023-02-15T17:45:15.362Z,4.66
2023-02-15T17:47:43.377Z,4.66
2023-02-15T17:50:20.453Z,4.60
2023-02-15T17:52:47.849Z,4.56
2023-02-15T17:55:36.125Z,4.49
2023-02-15T17:58:08.862Z,4.49
2023-02-15T18:00:57.931Z,4.38
2023-02-15T18:03:44.506Z,4.32
2023-02-15T18:06:32.610Z,4.27
2023-02-15T18:09:18.542Z,4.19
2023-02-15T18:11:48.882Z,4.05
2023-02-15T18:14:16.041Z,3.98
2023-02-15T18:16:45.811Z,3.96
2023-02-15T18:19:21.844Z,3.93
2023-02-15T18:21:49.072Z,3.96
2023-02-15T18:24:26.283Z,3.92
2023-02-15T18:26:54.904Z,3.89
2023-02-15T18:29:24.654Z,3.81
2023-02-15T18:31:59.988Z,3.77
2023-02-15T18:35:00.740Z,3.72
2023-02-15T18:37:30.258Z,3.62
2023-02-15T18:39:58.168Z,3.63
2023-02-15T18:42:36.876Z,3.59
2023-02-15T18:45:22.274Z,3.55
2023-02-15T18:47:49.402Z,3.56
2023-02-15T18:50:20.663Z,3.53
2023-02-15T18:52:48.960Z,3.50
2023-02-15T18:55:21.442Z,3.48
2023-02-15T18:57:49.362Z,3.50
2023-02-15T19:00:18.884Z,3.45
2023-02-15T19:02:50.902Z,3.39
2023-02-15T19:05:20.654Z,3.35
2023-02-15T19:07:48.785Z,3.30
2023-02-15T19:10:19.753Z,3.24
2023-02-15T19:12:48.299Z,3.28
2023-02-15T19:15:26.708Z,3.31
2023-02-15T19:17:56.707Z,3.28
2023-02-15T19:20:31.656Z,3.09
2023-02-15T19:22:59.436Z,3.09
2023-02-15T19:25:28.824Z,3.02
2023-02-15T19:27:57.603Z,3.02
2023-02-15T19:30:30.285Z,2.99
2023-02-15T19:32:58.181Z,2.95
2023-02-15T19:35:32.432Z,2.76
2023-02-15T19:38:07.905Z,2.75
2023-02-15T19:40:37.952Z,2.67
2023-02-15T19:43:19.398Z,2.73
2023-02-15T19:45:46.838Z,2.79
2023-02-15T19:48:14.934Z,2.85
2023-02-15T19:50:43.798Z,2.81
2023-02-15T19:53:24.261Z,2.76
2023-02-15T19:55:52.349Z,2.74
2023-02-15T19:58:22.269Z,2.73
2023-02-15T20:00:52.559Z,2.78
2023-02-15T20:06:54.586Z,2.63
2023-02-15T20:09:45.704Z,2.56
2023-02-15T20:12:39.746Z,2.53
2023-02-15T20:15:44.086Z,2.49
2023-02-15T20:18:33.207Z,2.54
2023-02-15T20:21:26.071Z,2.47
2023-02-15T20:24:18.882Z,2.45
2023-02-15T20:26:46.152Z,2.44
2023-02-15T20:29:16.959Z,2.37
2023-02-15T20:31:44.305Z,2.37
2023-02-15T20:34:11.848Z,2.38
2023-02-15T20:36:41.891Z,2.36
2023-02-15T20:39:18.838Z,2.32
2023-02-15T20:41:49.960Z,2.31
2023-02-15T20:44:30.957Z,2.28
2023-02-15T20:47:07.818Z,2.26
2023-02-15T20:49:38.629Z,2.13
2023-02-15T20:52:18.304Z,1.89
2023-02-15T20:54:48.583Z,1.99
2023-02-15T20:57:18.669Z,2.06
2023-02-15T20:59:45.853Z,2.05
2023-02-15T21:02:34.508Z,2.12
2023-02-15T21:05:02.092Z,2.12
2023-02-15T21:07:29.264Z,2.14
2023-02-15T21:09:56.386Z,2.16
2023-02-15T21:12:26.034Z,2.07
2023-02-15T21:14:58.156Z,2.00
2023-02-15T21:17:27.702Z,1.97
2023-02-15T21:19:55.048Z,1.95
2023-02-15T21:22:28.388Z,1.96
2023-02-15T21:24:55.526Z,1.94
2023-02-15T21:27:22.744Z,1.91
2023-02-15T21:29:53.412Z,1.87
2023-02-15T21:32:23.253Z,1.77
2023-02-15T21:34:50.364Z,1.77
2023-02-15T21:37:28.578Z,1.80
2023-02-15T21:39:55.672Z,1.80
2023-02-15T21:42:41.344Z,1.76
2023-02-15T21:45:37.084Z,1.75
2023-02-15T21:48:04.291Z,1.72
2023-02-15T21:50:50.105Z,1.64
2023-02-15T21:53:46.051Z,1.51
2023-02-15T21:56:16.653Z,1.56
2023-02-15T21:58:43.814Z,1.53
2023-02-15T22:01:21.159Z,1.54
2023-02-15T22:03:48.715Z,1.52
2023-02-15T22:06:15.649Z,1.56
2023-02-15T22:08:45.496Z,1.59
2023-02-15T22:11:22.792Z,1.56
2023-02-15T22:13:50.384Z,1.53
2023-02-15T22:16:21.982Z,1.52
2023-02-15T22:18:51.463Z,1.45
2023-02-15T22:21:19.386Z,1.44
2023-02-15T22:23:50.334Z,1.46
2023-02-15T22:26:27.583Z,1.39
2023-02-15T22:28:54.685Z,1.36
2023-02-15T22:31:22.853Z,1.34
2023-02-15T22:33:54.805Z,1.37
2023-02-15T22:36:27.158Z,1.41
2023-02-15T22:38:57.778Z,1.37
2023-02-15T22:41:26.056Z,1.30
2023-02-15T22:43:53.339Z,1.30
2023-02-15T22:46:24.288Z,1.36
2023-02-15T22:48:53.933Z,1.30
2023-02-15T22:51:24.019Z,1.29
2023-02-15T22:53:52.502Z,1.25
2023-02-15T22:56:23.392Z,1.29
2023-02-15T22:58:50.720Z,1.22
2023-02-15T23:01:28.050Z,1.13
2023-02-15T23:03:55.173Z,1.13
2023-02-15T23:06:22.251Z,1.14
2023-02-15T23:08:49.322Z,1.12
2023-02-15T23:11:17.268Z,1.13
2023-02-15T23:13:44.364Z,1.09
2023-02-15T23:16:15.307Z,1.12
2023-02-15T23:18:44.862Z,1.08
2023-02-15T23:21:24.207Z,1.08
2023-02-15T23:23:54.296Z,1.08
2023-02-15T23:26:26.293Z,1.11
2023-02-15T23:28:54.887Z,1.12
2023-02-15T23:31:31.882Z,1.14
2023-02-15T23:34:11.091Z,1.09
2023-02-15T23:36:39.400Z,1.06
2023-02-15T23:39:34.236Z,1.05
2023-02-15T23:42:04.380Z,1.05
2023-02-15T23:44:31.698Z,1.00
2023-02-15T23:46:59.366Z,1.02
2023-02-15T23:49:29.159Z,1.04
2023-02-15T23:52:02.571Z,1.01
2023-02-15T23:54:33.997Z,1.02
2023-02-15T23:57:02.365Z,0.96
2023-02-15T23:59:31.369Z,0.94
